Time;durP1;ratioP1;P1;durP2;ratioP2;P2;SDS_P1;SDS_P2;PMS_P1;PMS_P2;Temp;Humidity;BMP_temperature;BMP_pressure;BME280_temperature;BME280_humidity;BME280_pressure;Samples;Min_cycle;Max_cycle;Signal;HPM_P1;HPM_P2
2022/06/02 00:00:13;;;;;;;9.40;7.13;;;16.30;99.90;;;;;;4589295;19;20476;-26
2022/06/02 00:02:07;;;;;;;10.68;7.50;;;16.30;99.90;;;;;;4590967;19;20006;-25
2022/06/02 00:03:41;;;;;;;10.07;7.55;;;16.30;99.90;;;;;;4590708;19;20473;-27
2022/06/02 00:05:29;;;;;;;7.95;6.65;;;16.30;99.90;;;;;;4590106;19;20087;-30
2022/06/02 00:07:10;;;;;;;9.93;8.02;;;16.30;99.90;;;;;;4590643;19;20053;-25
2022/06/02 00:08:43;;;;;;;9.25;7.05;;;16.30;99.90;;;;;;4591733;19;20007;-28
2022/06/02 00:10:30;;;;;;;11.05;7.50;;;16.30;99.90;;;;;;4592743;19;20042;-25
2022/06/02 00:12:12;;;;;;;9.73;7.57;;;16.30;99.90;;;;;;4592781;19;20378;-27
2022/06/02 00:13:46;;;;;;;;;;;16.30;99.90;;;;;;4592428;19;20372;-26
2022/06/02 00:15:52;;;;;;;9.48;7.22;;;16.30;99.90;;;;;;4591666;19;19936;-27
2022/06/02 00:17:43;;;;;;;10.85;7.43;;;16.20;99.90;;;;;;4590766;19;20081;-25
2022/06/02 00:19:34;;;;;;;8.90;7.53;;;16.30;99.90;;;;;;4592079;19;20010;-25
2022/06/02 00:21:21;;;;;;;9.80;7.10;;;16.30;99.90;;;;;;4591719;19;20006;-25
2022/06/02 00:23:07;;;;;;;8.40;6.95;;;16.20;99.90;;;;;;4591544;19;20045;-26
2022/06/02 00:25:00;;;;;;;8.02;6.60;;;16.30;99.90;;;;;;4591415;19;20014;-24
2022/06/02 00:26:49;;;;;;;9.20;6.72;;;16.20;99.90;;;;;;4591340;19;20015;-25
2022/06/02 00:28:27;;;;;;;8.77;6.95;;;16.20;99.90;;;;;;4592126;19;20369;-27
2022/06/02 00:30:22;;;;;;;9.05;7.35;;;16.20;99.90;;;;;;4592433;19;20357;-26
2022/06/02 00:32:11;;;;;;;10.50;7.13;;;16.20;99.90;;;;;;4592351;19;20081;-25
2022/06/02 00:33:55;;;;;;;9.50;7.00;;;16.20;99.90;;;;;;4591305;19;20011;-26
2022/06/02 00:35:42;;;;;;;9.65;7.15;;;16.20;99.90;;;;;;4592318;19;20007;-25
2022/06/02 00:37:55;;;;;;;9.27;7.20;;;16.20;99.90;;;;;;4591198;19;20018;-26
2022/06/02 00:39:27;;;;;;;;;;;16.20;99.90;;;;;;4592954;19;20025;-25
2022/06/02 00:41:23;;;;;;;9.43;6.68;;;16.20;99.90;;;;;;4591001;19;19918;-27
2022/06/02 00:43:05;;;;;;;10.82;8.15;;;16.20;99.90;;;;;;4591026;19;20015;-26
2022/06/02 00:44:55;;;;;;;11.40;8.40;;;16.20;99.90;;;;;;4591021;19;20011;-30
2022/06/02 00:46:52;;;;;;;11.88;10.13;;;16.20;99.90;;;;;;4590551;19;20048;-28
2022/06/02 00:48:53;;;;;;;14.07;10.10;;;16.10;99.90;;;;;;4591553;19;20019;-26
2022/06/02 00:50:45;;;;;;;10.05;8.75;;;16.10;99.90;;;;;;4591661;19;20006;-25
2022/06/02 00:52:31;;;;;;;11.07;8.50;;;16.10;99.90;;;;;;4591268;19;20014;-30
2022/06/02 00:58:01;;;;;;;14.43;11.02;;;16.10;99.90;;;;;;4592403;19;20481;-26
2022/06/02 00:59:44;;;;;;;14.45;10.57;;;16.20;99.90;;;;;;4590879;19;20081;-28
2022/06/02 01:01:18;;;;;;;11.60;8.95;;;16.10;99.90;;;;;;4590878;19;20014;-25
2022/06/02 01:03:08;;;;;;;10.48;8.68;;;16.20;99.90;;;;;;4591429;19;20010;-25
2022/06/02 01:04:42;;;;;;;11.85;9.48;;;16.10;99.90;;;;;;4590577;19;20018;-25
2022/06/02 01:06:23;;;;;;;11.57;9.07;;;16.20;99.90;;;;;;4589596;19;20010;-25
2022/06/02 01:07:54;;;;;;;12.73;9.70;;;16.10;99.90;;;;;;4591165;19;20493;-24
2022/06/02 01:09:41;;;;;;;12.93;9.52;;;16.10;99.90;;;;;;4591815;19;20011;-25
2022/06/02 01:11:46;;;;;;;14.05;10.35;;;16.10;99.90;;;;;;4591413;19;20382;-25
2022/06/02 01:13:19;;;;;;;14.07;10.10;;;16.10;99.90;;;;;;4589369;19;20021;-27
2022/06/02 01:15:02;;;;;;;13.52;10.15;;;16.20;99.90;;;;;;4589257;19;20071;-28
2022/06/02 01:16:45;;;;;;;15.30;11.88;;;16.10;99.90;;;;;;4588921;19;20116;-25
2022/06/02 01:18:25;;;;;;;14.15;10.60;;;16.10;99.90;;;;;;4589239;19;20011;-26
2022/06/02 01:20:06;;;;;;;13.50;9.88;;;16.10;99.90;;;;;;4589653;19;20019;-25
2022/06/02 01:21:52;;;;;;;13.50;10.35;;;16.10;99.90;;;;;;4589689;19;20051;-26
2022/06/02 01:24:02;;;;;;;12.30;9.43;;;16.10;99.90;;;;;;4588991;19;20018;-24
2022/06/02 01:25:53;;;;;;;12.35;9.95;;;16.10;99.90;;;;;;4588925;19;20010;-26
2022/06/02 01:27:36;;;;;;;10.73;9.25;;;16.10;99.90;;;;;;4589514;19;20479;-28
2022/06/02 01:29:12;;;;;;;12.13;8.75;;;16.10;99.90;;;;;;4589192;19;20526;-26
2022/06/02 01:30:48;;;;;;;11.35;9.38;;;16.10;99.90;;;;;;4589134;19;20038;-25
2022/06/02 01:32:22;;;;;;;11.98;8.65;;;16.10;99.90;;;;;;4588841;19;20063;-26
2022/06/02 01:34:00;;;;;;;11.15;9.05;;;16.20;99.90;;;;;;4588940;19;20013;-26
2022/06/02 01:35:41;;;;;;;11.75;9.00;;;16.10;99.90;;;;;;4589362;19;20010;-29
2022/06/02 01:37:23;;;;;;;12.70;9.38;;;16.20;99.90;;;;;;4588758;19;20018;-25
2022/06/02 01:38:57;;;;;;;12.73;10.23;;;16.10;99.90;;;;;;4589049;19;20528;-25
2022/06/02 01:40:59;;;;;;;12.77;9.48;;;16.10;99.90;;;;;;4589089;19;20010;-24
2022/06/02 01:42:39;;;;;;;12.75;9.60;;;16.20;99.90;;;;;;4588983;19;20010;-25
2022/06/02 01:44:20;;;;;;;11.25;10.07;;;16.10;99.90;;;;;;4588939;19;20035;-26
2022/06/02 01:45:59;;;;;;;13.70;9.68;;;16.20;99.90;;;;;;4588914;19;20018;-25
2022/06/02 01:47:43;;;;;;;11.50;8.85;;;16.10;99.90;;;;;;4588574;19;20015;-30
2022/06/02 01:49:23;;;;;;;13.30;9.60;;;16.10;99.90;;;;;;4588913;19;20511;-26
2022/06/02 01:51:13;;;;;;;10.68;8.32;;;16.10;99.90;;;;;;4590215;19;20018;-27
2022/06/02 01:53:01;;;;;;;10.93;8.85;;;16.10;99.90;;;;;;4591057;19;19994;-27
2022/06/02 01:55:09;;;;;;;10.63;8.65;;;16.10;99.90;;;;;;4590617;19;20015;-25
2022/06/02 01:56:55;;;;;;;11.00;9.43;;;16.10;99.90;;;;;;4590567;19;20354;-25
2022/06/02 01:58:58;;;;;;;12.07;9.77;;;16.10;99.90;;;;;;4591150;19;20326;-28
2022/06/02 02:00:31;;;;;;;11.95;9.10;;;16.20;99.90;;;;;;4588704;19;20006;-25
2022/06/02 02:02:18;;;;;;;11.85;9.65;;;16.10;99.90;;;;;;4588239;19;20473;-26
2022/06/02 02:04:21;;;;;;;10.95;8.52;;;16.10;99.90;;;;;;4588219;19;20476;-26
2022/06/02 02:06:07;;;;;;;10.77;8.85;;;16.10;99.90;;;;;;4587875;19;20086;-27
2022/06/02 02:08:05;;;;;;;10.32;9.13;;;16.10;99.90;;;;;;4588526;19;20091;-28
2022/06/02 02:09:55;;;;;;;12.65;9.05;;;16.20;99.90;;;;;;4588197;19;20021;-25
2022/06/02 02:11:52;;;;;;;11.57;9.60;;;16.10;99.90;;;;;;4588235;19;20027;-25
2022/06/02 02:13:38;;;;;;;11.10;8.63;;;16.10;99.90;;;;;;4588658;19;20365;-25
2022/06/02 02:15:17;;;;;;;15.77;9.00;;;16.10;99.90;;;;;;4588177;19;20007;-24
2022/06/02 02:17:06;;;;;;;11.18;9.27;;;16.20;99.90;;;;;;4587227;19;20018;-26
2022/06/02 02:18:54;;;;;;;9.57;8.02;;;16.20;99.90;;;;;;4587971;19;20010;-25
2022/06/02 02:20:40;;;;;;;11.73;8.65;;;16.10;99.90;;;;;;4587781;19;20504;-25
2022/06/02 02:22:25;;;;;;;11.23;9.27;;;16.10;99.90;;;;;;4588064;19;20104;-25
2022/06/02 02:24:17;;;;;;;9.30;8.27;;;16.20;99.90;;;;;;4588159;19;20005;-30
2022/06/02 02:26:16;;;;;;;12.35;8.93;;;16.10;99.90;;;;;;4587768;19;20027;-25
2022/06/02 02:28:02;;;;;;;11.95;9.27;;;16.10;99.90;;;;;;4588073;19;20468;-25
2022/06/02 02:29:44;;;;;;;10.88;8.93;;;16.10;99.90;;;;;;4587733;19;20386;-28
2022/06/02 02:31:21;;;;;;;12.13;8.60;;;16.20;99.90;;;;;;4587815;19;20105;-26
2022/06/02 02:33:29;;;;;;;11.38;9.15;;;16.10;99.90;;;;;;4588119;19;20011;-24
2022/06/02 02:35:06;;;;;;;10.90;8.77;;;16.10;99.90;;;;;;4587652;19;20018;-26
2022/06/02 02:36:58;;;;;;;11.35;8.82;;;16.10;99.90;;;;;;4587367;19;20049;-26
2022/06/02 02:38:37;;;;;;;12.00;8.90;;;16.20;99.90;;;;;;4587434;19;20432;-25
2022/06/02 02:40:22;;;;;;;12.15;9.30;;;16.20;99.90;;;;;;4587854;19;20011;-25
2022/06/02 02:42:14;;;;;;;12.57;9.52;;;16.20;99.90;;;;;;4587484;19;20019;-28
2022/06/02 02:43:56;;;;;;;12.80;9.27;;;16.10;99.90;;;;;;4587669;19;20385;-26
2022/06/02 02:45:57;;;;;;;11.23;9.20;;;16.10;99.90;;;;;;4587123;19;20078;-26
2022/06/02 02:47:33;;;;;;;11.68;9.18;;;16.20;99.90;;;;;;4587525;19;20015;-25
2022/06/02 02:49:28;;;;;;;11.68;9.77;;;16.10;99.90;;;;;;4588115;19;20011;-25
2022/06/02 02:51:14;;;;;;;11.88;9.45;;;16.20;99.90;;;;;;4587497;19;20031;-26
2022/06/02 02:53:09;;;;;;;14.25;10.07;;;16.10;99.90;;;;;;4587938;19;20006;-26
2022/06/02 02:55:19;;;;;;;12.35;9.25;;;16.20;99.90;;;;;;4588241;19;20003;-25
2022/06/02 02:57:02;;;;;;;11.40;9.00;;;16.10;99.90;;;;;;4587373;19;20014;-26
2022/06/02 02:58:55;;;;;;;11.88;9.02;;;16.10;99.90;;;;;;4587178;19;20015;-25
2022/06/02 03:00:28;;;;;;;11.65;9.23;;;16.10;99.90;;;;;;4587338;19;20014;-26
2022/06/02 03:02:02;;;;;;;11.05;8.63;;;16.10;99.90;;;;;;4587350;19;20105;-26
2022/06/02 03:03:59;;;;;;;10.85;9.05;;;16.10;99.90;;;;;;4587334;19;20465;-26
2022/06/02 03:05:59;;;;;;;11.07;9.18;;;16.10;99.90;;;;;;4586949;19;20011;-26
2022/06/02 03:07:31;;;;;;;11.18;8.93;;;16.10;99.90;;;;;;4588123;19;19998;-27
2022/06/02 03:09:21;;;;;;;10.40;8.80;;;16.20;99.90;;;;;;4591644;19;20007;-26
2022/06/02 03:10:55;;;;;;;11.00;8.93;;;16.10;99.90;;;;;;4591706;19;20017;-25
2022/06/02 03:12:52;;;;;;;13.13;10.30;;;16.10;99.90;;;;;;4591287;19;20024;-27
2022/06/02 03:14:40;;;;;;;10.25;9.00;;;16.10;99.90;;;;;;4591657;19;20118;-25
2022/06/02 03:16:11;;;;;;;13.40;8.82;;;16.10;99.90;;;;;;4591622;19;20026;-25
2022/06/02 03:18:07;;;;;;;9.52;8.52;;;16.10;99.90;;;;;;4589685;19;20472;-27
2022/06/02 03:20:01;;;;;;;9.77;8.55;;;16.10;99.90;;;;;;4591733;19;20002;-25
2022/06/02 03:22:12;;;;;;;11.15;8.18;;;16.10;99.90;;;;;;4591588;19;20002;-25
2022/06/02 03:23:46;;;;;;;9.73;8.02;;;16.10;99.90;;;;;;4591544;19;20115;-25
2022/06/02 03:25:51;;;;;;;10.80;8.43;;;16.10;99.90;;;;;;4590893;19;20031;-24
2022/06/02 03:27:28;;;;;;;9.10;7.75;;;16.20;99.90;;;;;;4591546;19;20015;-25
2022/06/02 03:29:11;;;;;;;9.93;8.23;;;16.20;99.90;;;;;;4591557;19;20045;-24
2022/06/02 03:31:04;;;;;;;11.80;9.25;;;16.10;99.90;;;;;;4591911;19;20031;-26
2022/06/02 03:32:40;;;;;;;9.85;8.73;;;16.10;99.90;;;;;;4591329;19;20080;-27
2022/06/02 03:34:17;;;;;;;10.60;9.50;;;16.10;99.90;;;;;;4592128;19;20010;-27
2022/06/02 03:36:32;;;;;;;10.48;8.98;;;16.10;99.90;;;;;;4591161;19;20011;-26
2022/06/02 03:38:46;;;;;;;11.20;9.10;;;16.10;99.90;;;;;;4590802;19;20014;-27
2022/06/02 03:40:37;;;;;;;10.60;8.43;;;16.10;99.90;;;;;;4589058;19;20015;-25
2022/06/02 03:42:38;;;;;;;10.35;8.15;;;16.10;99.90;;;;;;4589016;19;20019;-26
2022/06/02 03:44:30;;;;;;;10.77;9.50;;;16.20;99.90;;;;;;4588743;19;20015;-26
2022/06/02 03:46:16;;;;;;;11.60;9.70;;;16.10;99.90;;;;;;4590020;19;20487;-25
2022/06/02 03:48:13;;;;;;;12.02;9.60;;;16.20;99.90;;;;;;4590744;19;20056;-24
2022/06/02 03:50:16;;;;;;;10.47;8.43;;;16.10;99.90;;;;;;4589411;19;20014;-27
2022/06/02 03:52:16;;;;;;;10.43;9.35;;;16.10;99.90;;;;;;4588903;19;20539;-28
2022/06/02 03:54:11;;;;;;;11.13;8.13;;;16.20;99.90;;;;;;4588927;19;20086;-25
2022/06/02 03:56:15;;;;;;;10.52;9.32;;;16.10;99.90;;;;;;4589250;19;20014;-27
2022/06/02 03:58:19;;;;;;;13.10;10.35;;;16.10;99.90;;;;;;4588847;19;20093;-27
2022/06/02 04:00:03;;;;;;;16.10;11.88;;;16.10;99.90;;;;;;4589859;19;20078;-25
2022/06/02 04:01:39;;;;;;;11.13;9.93;;;16.10;99.90;;;;;;4591151;19;20006;-25
2022/06/02 04:03:10;;;;;;;11.10;9.88;;;16.20;99.90;;;;;;4590446;19;20399;-26
2022/06/02 04:04:59;;;;;;;14.65;10.70;;;16.10;99.90;;;;;;4592545;19;20545;-25
2022/06/02 04:06:48;;;;;;;13.48;10.18;;;16.10;99.90;;;;;;4589419;19;20010;-27
2022/06/02 04:08:30;;;;;;;11.20;9.93;;;16.10;99.90;;;;;;4590534;19;20129;-27
2022/06/02 04:10:27;;;;;;;17.05;11.18;;;16.10;99.90;;;;;;4590827;19;20006;-25
2022/06/02 04:14:18;;;;;;;10.68;9.02;;;16.10;99.90;;;;;;4590666;19;20017;-25
2022/06/02 04:16:04;;;;;;;10.60;8.98;;;16.10;99.90;;;;;;4590715;19;20018;-26
2022/06/02 04:17:58;;;;;;;12.07;8.77;;;16.20;99.90;;;;;;4588755;19;20061;-25
2022/06/02 04:21:36;;;;;;;10.15;8.57;;;16.10;99.90;;;;;;4589965;19;20014;-24
2022/06/02 04:23:11;;;;;;;9.82;8.82;;;16.10;99.90;;;;;;4591365;19;20022;-25
2022/06/02 04:25:19;;;;;;;9.82;7.90;;;16.10;99.90;;;;;;4592785;19;20014;-25
2022/06/02 04:27:02;;;;;;;12.07;9.18;;;16.10;99.90;;;;;;4592502;19;20052;-26
2022/06/02 04:29:09;;;;;;;10.85;8.73;;;16.10;99.90;;;;;;4592871;19;20070;-26
2022/06/02 04:30:59;;;;;;;9.50;8.43;;;16.20;99.90;;;;;;4594699;19;20015;-27
2022/06/02 04:32:40;;;;;;;9.60;8.60;;;16.20;99.90;;;;;;4592991;19;19998;-25
2022/06/02 04:34:32;;;;;;;9.77;8.70;;;16.20;99.90;;;;;;4591203;19;20011;-25
2022/06/02 04:36:33;;;;;;;9.77;8.68;;;16.20;99.90;;;;;;4593735;19;20112;-26
2022/06/02 04:38:16;;;;;;;10.98;8.40;;;16.20;99.90;;;;;;4593366;19;20015;-30
2022/06/02 04:39:52;;;;;;;12.02;9.77;;;16.20;99.90;;;;;;4591206;19;20429;-25
2022/06/02 04:41:42;;;;;;;11.57;8.70;;;16.20;99.90;;;;;;4590128;19;20018;-25
2022/06/02 04:43:50;;;;;;;10.23;8.05;;;16.20;99.90;;;;;;4593662;19;20353;-27
2022/06/02 04:45:36;;;;;;;12.85;9.63;;;16.20;99.90;;;;;;4593003;19;20066;-27
2022/06/02 04:47:12;;;;;;;14.90;10.45;;;16.20;99.90;;;;;;4592118;19;20025;-30
2022/06/02 04:49:00;;;;;;;14.77;10.52;;;16.30;99.90;;;;;;4589566;19;20022;-26
2022/06/02 04:50:42;;;;;;;12.30;9.85;;;16.30;99.90;;;;;;4591918;19;20023;-25
2022/06/02 04:52:47;;;;;;;13.02;9.95;;;16.40;99.90;;;;;;4589539;19;21268;-29
2022/06/02 04:54:50;;;;;;;17.17;9.60;;;16.50;99.90;;;;;;4590443;19;20019;-26
2022/06/02 04:56:49;;;;;;;11.00;8.70;;;16.50;99.90;;;;;;4592016;19;20548;-25
2022/06/02 04:58:28;;;;;;;10.57;8.10;;;16.60;99.90;;;;;;4589577;19;20007;-24
2022/06/02 05:00:12;;;;;;;10.23;8.27;;;16.60;99.90;;;;;;4589649;19;20516;-27
2022/06/02 05:01:47;;;;;;;9.90;7.07;;;16.60;99.90;;;;;;4591314;19;20520;-25
2022/06/02 05:03:30;;;;;;;7.90;6.78;;;16.60;99.90;;;;;;4590309;19;20373;-26
2022/06/02 05:05:09;;;;;;;9.98;7.35;;;16.60;99.90;;;;;;4590766;19;20046;-28
2022/06/02 05:07:00;;;;;;;10.57;7.07;;;16.60;99.90;;;;;;4590730;19;20023;-26
2022/06/02 05:08:52;;;;;;;7.68;6.75;;;16.60;99.90;;;;;;4589423;19;20022;-25
2022/06/02 05:10:40;;;;;;;9.82;6.68;;;16.60;99.90;;;;;;4592116;19;20071;-28
2022/06/02 05:12:36;;;;;;;9.27;6.75;;;16.60;99.90;;;;;;4589809;19;20006;-25
2022/06/02 05:14:23;;;;;;;10.60;7.57;;;16.60;99.90;;;;;;4592430;19;20066;-27
2022/06/02 05:15:59;;;;;;;7.70;6.20;;;16.60;99.90;;;;;;4589013;19;20021;-26
2022/06/02 05:17:36;;;;;;;7.97;6.40;;;16.60;99.90;;;;;;4589791;19;20118;-25
2022/06/02 05:19:56;;;;;;;9.43;6.57;;;16.60;99.90;;;;;;4591246;19;20011;-25
2022/06/02 05:21:49;;;;;;;9.57;6.60;;;16.60;99.90;;;;;;4589114;19;20010;-25
2022/06/02 05:23:42;;;;;;;6.88;6.18;;;16.60;99.90;;;;;;4587941;19;20083;-26
2022/06/02 05:25:31;;;;;;;9.98;6.57;;;16.60;99.90;;;;;;4589217;19;20011;-24
2022/06/02 05:27:27;;;;;;;8.60;7.00;;;16.60;99.90;;;;;;4588934;19;20014;-25
2022/06/02 05:29:35;;;;;;;10.65;8.23;;;16.60;99.90;;;;;;4589410;19;20010;-31
2022/06/02 05:31:27;;;;;;;10.55;7.90;;;16.50;99.90;;;;;;4588063;19;19999;-25
2022/06/02 05:33:01;;;;;;;11.52;8.60;;;16.50;99.90;;;;;;4590272;19;20086;-25
2022/06/02 05:34:52;;;;;;;11.63;8.88;;;16.60;99.90;;;;;;4589693;19;20069;-27
2022/06/02 05:36:46;;;;;;;9.23;8.27;;;16.60;99.90;;;;;;4590080;19;20014;-25
2022/06/02 05:38:39;;;;;;;9.98;8.45;;;16.50;99.90;;;;;;4590639;19;20488;-26
2022/06/02 05:40:38;;;;;;;8.70;7.80;;;16.50;99.90;;;;;;4591496;19;20030;-26
2022/06/02 05:42:20;;;;;;;10.10;9.13;;;16.60;99.90;;;;;;4589166;19;20010;-24
2022/06/02 05:44:28;;;;;;;9.85;8.02;;;16.60;99.90;;;;;;4589048;19;20106;-26
2022/06/02 05:46:12;;;;;;;9.35;8.35;;;16.60;99.90;;;;;;4589420;19;20021;-27
2022/06/02 05:48:04;;;;;;;9.95;8.05;;;16.60;99.90;;;;;;4589288;19;20046;-26
2022/06/02 05:50:01;;;;;;;9.50;8.50;;;16.60;99.90;;;;;;4590930;19;20011;-27
2022/06/02 05:51:35;;;;;;;10.77;8.95;;;16.60;99.90;;;;;;4587308;19;20021;-26
2022/06/02 05:53:12;;;;;;;10.18;8.90;;;16.60;99.90;;;;;;4587441;19;20021;-26
2022/06/02 05:54:49;;;;;;;8.77;7.88;;;16.60;99.90;;;;;;4587038;19;20010;-28
2022/06/02 05:56:29;;;;;;;8.93;8.02;;;16.60;99.90;;;;;;4588830;19;20542;-26
2022/06/02 05:58:23;;;;;;;8.52;7.63;;;16.60;99.90;;;;;;4588630;19;20022;-24
2022/06/02 05:59:54;;;;;;;8.68;7.50;;;16.60;99.90;;;;;;4588999;19;20022;-25
2022/06/02 06:01:42;;;;;;;8.43;7.53;;;16.60;99.90;;;;;;4590647;19;20018;-27
2022/06/02 06:03:25;;;;;;;10.00;7.38;;;16.60;99.90;;;;;;4589511;19;20468;-23
2022/06/02 06:05:02;;;;;;;8.20;7.05;;;16.60;99.90;;;;;;4589533;19;20022;-26
2022/06/02 06:06:43;;;;;;;10.07;7.65;;;16.60;99.90;;;;;;4589569;19;20074;-26
2022/06/02 06:08:29;;;;;;;9.32;7.60;;;16.70;99.90;;;;;;4589005;19;20011;-27
2022/06/02 06:10:09;;;;;;;9.20;7.63;;;16.70;99.90;;;;;;4590219;19;20521;-25
2022/06/02 06:12:09;;;;;;;9.40;7.45;;;16.70;99.90;;;;;;4591039;19;20377;-28
2022/06/02 06:14:04;;;;;;;7.25;6.47;;;16.80;99.90;;;;;;4591219;19;20011;-27
2022/06/02 06:15:53;;;;;;;7.97;6.93;;;16.80;99.90;;;;;;4590199;19;20018;-24
2022/06/02 06:17:42;;;;;;;6.90;6.20;;;16.90;99.90;;;;;;4588717;19;20508;-27
2022/06/02 06:19:25;;;;;;;7.40;6.07;;;17.00;99.90;;;;;;4591285;19;20253;-26
2022/06/02 06:21:06;;;;;;;8.38;7.05;;;17.20;99.90;;;;;;4592099;19;20074;-29
2022/06/02 06:22:59;;;;;;;8.73;7.18;;;17.30;99.90;;;;;;4589798;19;20377;-28
2022/06/02 06:24:56;;;;;;;8.45;7.28;;;17.20;99.90;;;;;;4588916;19;20024;-26
2022/06/02 06:26:38;;;;;;;8.57;7.45;;;17.10;99.90;;;;;;4588218;19;20089;-25
2022/06/02 06:28:20;;;;;;;8.43;7.50;;;17.00;99.90;;;;;;4588957;19;20350;-28
2022/06/02 06:30:07;;;;;;;8.80;7.90;;;17.00;99.90;;;;;;4590242;19;20024;-26
2022/06/02 06:31:42;;;;;;;8.70;7.90;;;17.00;99.90;;;;;;4589238;19;20078;-27
2022/06/02 06:33:27;;;;;;;8.52;7.70;;;16.90;99.90;;;;;;4589549;19;20473;-25
2022/06/02 06:35:07;;;;;;;8.73;7.88;;;16.90;99.90;;;;;;4589957;19;20066;-24
2022/06/02 06:36:43;;;;;;;10.23;8.13;;;16.90;99.90;;;;;;4590409;19;20066;-25
2022/06/02 06:38:35;;;;;;;8.68;7.75;;;16.90;99.90;;;;;;4589114;19;20010;-26
2022/06/02 06:40:11;;;;;;;8.48;7.18;;;16.90;99.90;;;;;;4590148;19;20014;-25
2022/06/02 06:41:56;;;;;;;8.05;6.78;;;16.80;99.90;;;;;;4592598;19;19998;-26
2022/06/02 06:43:37;;;;;;;9.20;7.15;;;17.00;99.90;;;;;;4593505;19;20042;-26
2022/06/02 06:45:18;;;;;;;7.32;6.60;;;17.10;99.90;;;;;;4593443;19;20006;-29
2022/06/02 06:47:30;;;;;;;7.50;6.75;;;17.20;99.90;;;;;;4592494;19;20014;-25
2022/06/02 06:49:11;;;;;;;;;;;17.30;99.90;;;;;;4593479;19;20011;-26
2022/06/02 06:51:03;;;;;;;9.10;6.15;;;17.40;99.90;;;;;;4592369;19;19911;-27
2022/06/02 06:52:43;;;;;;;9.63;7.55;;;17.40;99.90;;;;;;4592196;19;20011;-25
2022/06/02 06:54:21;;;;;;;6.95;6.25;;;17.40;99.90;;;;;;4593347;19;20018;-27
2022/06/02 06:56:22;;;;;;;9.45;7.28;;;17.30;99.90;;;;;;4593345;19;20024;-27
2022/06/02 06:58:28;;;;;;;8.18;6.88;;;17.10;99.90;;;;;;4593227;19;20015;-26
2022/06/02 07:00:09;;;;;;;8.05;7.18;;;17.10;99.90;;;;;;4592330;19;20082;-25
2022/06/02 07:01:52;;;;;;;8.23;7.40;;;17.00;99.90;;;;;;4593697;19;20045;-26
2022/06/02 07:03:43;;;;;;;6.85;6.25;;;17.00;99.90;;;;;;4593148;19;20078;-26
2022/06/02 07:05:28;;;;;;;7.47;6.78;;;16.90;99.90;;;;;;4592132;19;20134;-27
2022/06/02 07:07:10;;;;;;;8.68;6.85;;;17.00;99.90;;;;;;4593036;19;20021;-26
2022/06/02 07:08:50;;;;;;;8.43;6.60;;;17.00;99.90;;;;;;4593606;19;20048;-26
2022/06/02 07:10:30;;;;;;;7.20;6.47;;;17.00;99.90;;;;;;4592780;19;20034;-27
2022/06/02 07:13:57;;;;;;;6.43;5.63;;;16.90;99.90;;;;;;4591996;19;20019;-26
2022/06/02 07:15:39;;;;;;;8.27;6.43;;;16.90;99.90;;;;;;4593389;19;20467;-25
2022/06/02 07:17:27;;;;;;;6.43;5.85;;;16.80;99.90;;;;;;4593182;19;20018;-25
2022/06/02 07:19:29;;;;;;;9.07;8.18;;;16.80;99.90;;;;;;4591486;19;20350;-26
2022/06/02 07:21:17;;;;;;;9.80;6.47;;;16.80;99.90;;;;;;4593086;19;20019;-29
2022/06/02 07:23:11;;;;;;;8.35;7.65;;;17.00;99.90;;;;;;4592799;19;20025;-28
2022/06/02 07:24:57;;;;;;;9.15;8.25;;;17.10;99.90;;;;;;4591353;19;20524;-24
2022/06/02 07:26:51;;;;;;;8.00;7.20;;;17.10;99.90;;;;;;4590276;19;20014;-25
2022/06/02 07:28:22;;;;;;;8.60;7.50;;;17.10;99.90;;;;;;4593857;19;20036;-24
2022/06/02 07:30:12;;;;;;;8.93;7.78;;;17.20;99.90;;;;;;4591399;19;20062;-25
2022/06/02 07:31:58;;;;;;;12.02;8.40;;;17.30;99.90;;;;;;4592797;19;20026;-26
2022/06/02 07:34:02;;;;;;;9.85;8.93;;;17.30;99.90;;;;;;4591207;19;20078;-25
2022/06/02 07:35:35;;;;;;;9.25;8.35;;;17.30;99.90;;;;;;4591541;19;20519;-26
2022/06/02 07:37:41;;;;;;;9.93;9.00;;;17.40;99.90;;;;;;4592901;19;20022;-25
2022/06/02 07:39:24;;;;;;;9.43;8.57;;;17.50;99.90;;;;;;4591313;19;20021;-26
2022/06/02 07:41:01;;;;;;;10.40;9.50;;;17.50;99.90;;;;;;4592796;19;20102;-25
2022/06/02 07:42:54;;;;;;;11.15;10.15;;;17.40;99.90;;;;;;4591860;19;20024;-26
2022/06/02 07:44:43;;;;;;;10.63;9.48;;;17.40;99.90;;;;;;4596476;19;20034;-25
2022/06/02 07:46:55;;;;;;;10.50;9.23;;;17.40;99.90;;;;;;4591441;19;20003;-29
2022/06/02 07:48:45;;;;;;;10.05;9.15;;;17.40;99.90;;;;;;4592904;19;20014;-29
2022/06/02 07:50:28;;;;;;;10.25;9.25;;;17.40;99.90;;;;;;4594375;19;20006;-25
2022/06/02 07:52:05;;;;;;;10.88;9.77;;;17.40;99.90;;;;;;4594959;19;20035;-31
2022/06/02 07:54:07;;;;;;;9.18;8.38;;;17.40;99.90;;;;;;4591445;19;20031;-30
2022/06/02 07:55:44;;;;;;;8.68;7.88;;;17.40;99.90;;;;;;4594678;19;20025;-26
2022/06/02 07:57:18;;;;;;;8.05;7.10;;;17.40;99.90;;;;;;4593038;19;20074;-24
2022/06/02 07:59:22;;;;;;;8.20;6.13;;;17.60;99.90;;;;;;4595873;19;20018;-27
2022/06/02 08:01:16;;;;;;;6.32;5.35;;;17.70;99.90;;;;;;4592072;19;20014;-27
2022/06/02 08:03:08;;;;;;;8.15;5.28;;;17.50;99.90;;;;;;4592343;19;20444;-27
2022/06/02 08:05:01;;;;;;;5.03;4.13;;;17.40;99.90;;;;;;4591007;19;20066;-27
2022/06/02 08:06:43;;;;;;;;;;;17.40;99.90;;;;;;4591807;19;20383;-28
2022/06/02 08:08:29;;;;;;;4.78;4.28;;;17.50;99.90;;;;;;4590051;19;19978;-31
2022/06/02 08:10:06;;;;;;;5.80;4.63;;;17.50;99.90;;;;;;4591971;19;20129;-25
2022/06/02 08:12:16;;;;;;;4.60;3.92;;;17.50;99.90;;;;;;4591285;19;20010;-27
2022/06/02 08:13:50;;;;;;;3.35;2.90;;;17.40;99.90;;;;;;4591650;19;20023;-26
2022/06/02 08:15:37;;;;;;;4.35;3.22;;;17.40;99.90;;;;;;4590817;19;20018;-25
2022/06/02 08:17:22;;;;;;;5.18;3.97;;;17.40;99.90;;;;;;4590961;19;20074;-25
2022/06/02 08:18:55;;;;;;;5.05;3.72;;;17.40;99.90;;;;;;4590230;19;20559;-29
2022/06/02 08:20:36;;;;;;;5.75;3.75;;;17.40;99.90;;;;;;4590287;19;20029;-24
2022/06/02 08:22:08;;;;;;;7.40;4.43;;;17.40;99.90;;;;;;4592419;19;20366;-25
2022/06/02 08:24:01;;;;;;;5.10;3.28;;;17.80;99.90;;;;;;4590659;19;20026;-25
2022/06/02 08:25:43;;;;;;;3.70;2.72;;;18.00;99.90;;;;;;4590038;19;20007;-25
2022/06/02 08:27:41;;;;;;;3.20;2.70;;;18.10;99.90;;;;;;4590283;19;20014;-26
2022/06/02 08:29:31;;;;;;;3.60;3.08;;;18.30;99.90;;;;;;4590142;19;20015;-25
2022/06/02 08:31:44;;;;;;;3.70;2.53;;;18.30;99.90;;;;;;4589698;19;20105;-27
2022/06/02 08:33:51;;;;;;;10.75;4.75;;;18.50;99.90;;;;;;4591872;19;20056;-26
2022/06/02 08:35:32;;;;;;;4.43;2.90;;;18.80;99.90;;;;;;4590129;19;20021;-25
2022/06/02 08:37:25;;;;;;;3.70;2.60;;;18.60;99.90;;;;;;4588230;19;20410;-27
2022/06/02 08:39:02;;;;;;;2.83;2.40;;;18.50;99.90;;;;;;4591563;19;20014;-26
2022/06/02 08:41:31;;;;;;;3.90;3.28;;;18.20;99.90;;;;;;4589214;19;20102;-28
2022/06/02 08:43:15;;;;;;;3.25;2.80;;;17.90;99.90;;;;;;4588601;19;20021;-24
2022/06/02 08:45:23;;;;;;;4.55;3.40;;;17.70;99.90;;;;;;4587717;19;20037;-24
2022/06/02 08:47:09;;;;;;;4.55;3.70;;;17.50;99.90;;;;;;4586922;19;20019;-25
2022/06/02 08:49:01;;;;;;;4.15;3.47;;;17.40;99.90;;;;;;4591701;19;20018;-25
2022/06/02 08:51:00;;;;;;;4.70;3.22;;;17.30;99.90;;;;;;4590751;19;20354;-25
2022/06/02 08:52:45;;;;;;;3.45;3.13;;;17.30;99.90;;;;;;4591232;19;20014;-26
2022/06/02 08:54:29;;;;;;;4.07;3.03;;;17.40;99.90;;;;;;4590900;19;20018;-26
2022/06/02 08:56:32;;;;;;;4.78;3.30;;;17.40;99.90;;;;;;4589481;19;20018;-26
2022/06/02 08:58:22;;;;;;;3.58;2.70;;;17.40;99.90;;;;;;4591366;19;20018;-26
2022/06/02 09:00:22;;;;;;;2.85;2.40;;;17.40;99.90;;;;;;4588604;19;20102;-24
2022/06/02 09:02:33;;;;;;;4.10;2.90;;;17.30;99.90;;;;;;4590423;19;20018;-24
2022/06/02 09:04:26;;;;;;;3.42;3.13;;;17.40;99.90;;;;;;4589842;19;20055;-24
2022/06/02 09:06:35;;;;;;;5.65;3.95;;;17.40;99.90;;;;;;4587512;19;20018;-24
2022/06/02 09:08:14;;;;;;;3.92;3.45;;;17.30;99.90;;;;;;4588754;19;20006;-28
2022/06/02 09:10:26;;;;;;;4.18;3.53;;;17.20;99.90;;;;;;4589135;19;20377;-25
2022/06/02 09:12:19;;;;;;;4.63;3.38;;;17.10;99.90;;;;;;4589486;19;20015;-27
2022/06/02 09:14:23;;;;;;;4.55;3.13;;;17.00;99.90;;;;;;4591331;19;20396;-27
2022/06/02 09:16:17;;;;;;;5.03;3.63;;;17.00;99.90;;;;;;4592614;19;20015;-25
2022/06/02 09:18:05;;;;;;;3.40;3.00;;;17.10;99.90;;;;;;4590218;19;20543;-27
2022/06/02 09:19:57;;;;;;;4.22;3.30;;;17.10;99.90;;;;;;4590246;19;20028;-25
2022/06/02 09:21:48;;;;;;;;;;;17.20;99.90;;;;;;4593928;19;20010;-26
2022/06/02 09:24:01;;;;;;;5.70;3.13;;;17.20;99.90;;;;;;4588697;19;19931;-25
2022/06/02 09:25:35;;;;;;;4.05;3.28;;;17.30;99.90;;;;;;4589072;19;20011;-25
2022/06/02 09:27:23;;;;;;;3.97;3.50;;;17.40;99.90;;;;;;4590422;19;20482;-26
2022/06/02 09:29:20;;;;;;;3.65;3.33;;;17.40;99.90;;;;;;4588808;19;20091;-26
2022/06/02 09:30:56;;;;;;;4.80;3.58;;;17.60;99.90;;;;;;4588815;19;20463;-25